createdAt,value
2022-09-02T00:01:56.570Z,99257.41
2022-09-02T00:04:27.405Z,99266.72
2022-09-02T00:06:57.407Z,99273.59
2022-09-02T00:09:26.042Z,99277.78
2022-09-02T00:11:55.049Z,99285.38
2022-09-02T00:14:27.675Z,99272.28
2022-09-02T00:16:56.206Z,99282.75
2022-09-02T00:19:25.817Z,99265.41
2022-09-02T00:21:55.331Z,99284.69
2022-09-02T00:24:25.048Z,99285.59
2022-09-02T00:26:56.624Z,99286.56
2022-09-02T00:29:26.530Z,99284.94
2022-09-02T00:31:54.207Z,99284.22
2022-09-02T00:34:22.047Z,99283.25
2022-09-02T00:36:49.581Z,99275.28
2022-09-02T00:39:17.311Z,99284.91
2022-09-02T00:41:45.665Z,99287.59
2022-09-02T00:44:16.194Z,99291.91
2022-09-02T00:46:44.677Z,99280.78
2022-09-02T00:49:25.217Z,99269.44
2022-09-02T00:52:14.232Z,99283.38
2022-09-02T00:54:48.669Z,99287.84
2022-09-02T00:57:22.214Z,99292.94
2022-09-02T00:59:55.764Z,99292.94
2022-09-02T01:02:25.429Z,99290.38
2022-09-02T01:04:56.955Z,99282.59
2022-09-02T01:07:29.063Z,99299.13
2022-09-02T01:10:00.838Z,99293.09
2022-09-02T01:12:31.747Z,99289.63
2022-09-02T01:14:59.974Z,99282.50
2022-09-02T01:17:30.907Z,99273.91
2022-09-02T01:20:05.017Z,99282.38
2022-09-02T01:22:34.521Z,99287.59
2022-09-02T01:25:08.217Z,99287.47
2022-09-02T01:27:35.799Z,99301.25
2022-09-02T01:30:05.313Z,99286.41
2022-09-02T01:32:32.932Z,99291.31
2022-09-02T01:35:00.469Z,99282.34
2022-09-02T01:37:28.179Z,99274.34
2022-09-02T01:39:57.324Z,99299.47
2022-09-02T01:42:26.053Z,99296.59
2022-09-02T01:44:54.477Z,99297.53
2022-09-02T01:47:26.869Z,99292.91
2022-09-02T01:49:55.838Z,99292.00
2022-09-02T01:52:24.708Z,99286.72
2022-09-02T01:54:55.166Z,99310.13
2022-09-02T01:57:26.039Z,99287.69
2022-09-02T01:59:55.371Z,99313.56
2022-09-02T02:02:23.761Z,99314.31
2022-09-02T02:04:53.843Z,99315.25
2022-09-02T02:07:25.448Z,99321.16
2022-09-02T02:09:53.080Z,99321.22
2022-09-02T02:12:24.603Z,99324.78
2022-09-02T02:14:55.640Z,99321.47
2022-09-02T02:17:27.766Z,99311.16
2022-09-02T02:19:55.444Z,99312.78
2022-09-02T02:22:23.391Z,99320.81
2022-09-02T02:24:50.954Z,99314.66
2022-09-02T02:27:18.524Z,99294.63
2022-09-02T02:29:46.170Z,99304.81
2022-09-02T02:32:14.674Z,99318.56
2022-09-02T02:34:43.542Z,99312.34
2022-09-02T02:37:15.147Z,99309.84
2022-09-02T02:39:46.219Z,99320.13
2022-09-02T02:42:16.060Z,99328.09
2022-09-02T02:44:51.395Z,99334.25
2022-09-02T02:47:21.174Z,99335.16
2022-09-02T02:49:48.803Z,99326.56
2022-09-02T02:52:17.325Z,99334.41
2022-09-02T02:54:44.960Z,99342.78
2022-09-02T02:57:14.685Z,99325.34
2022-09-02T02:59:42.239Z,99350.50
2022-09-02T03:02:12.519Z,99344.50
2022-09-02T03:04:43.146Z,99341.69
2022-09-02T03:07:10.992Z,99354.81
2022-09-02T03:09:39.104Z,99342.72
2022-09-02T03:12:07.552Z,99346.16
2022-09-02T03:14:37.783Z,99359.13
2022-09-02T03:17:07.283Z,99353.25
2022-09-02T03:19:35.097Z,99358.38
2022-09-02T03:22:06.326Z,99349.94
2022-09-02T03:24:34.686Z,99358.38
2022-09-02T03:27:05.285Z,99341.78
2022-09-02T03:29:38.253Z,99354.94
2022-09-02T03:32:08.820Z,99348.81
2022-09-02T03:34:37.174Z,99348.81
2022-09-02T03:37:05.049Z,99348.00
2022-09-02T03:39:32.682Z,99365.50
2022-09-02T03:42:00.255Z,99366.44
2022-09-02T03:44:33.303Z,99354.50
2022-09-02T03:47:01.006Z,99363.44
2022-09-02T03:49:28.943Z,99358.38
2022-09-02T03:51:56.601Z,99367.94
2022-09-02T03:54:24.536Z,99368.91
2022-09-02T03:56:52.370Z,99360.13
2022-09-02T03:59:19.998Z,99359.41
2022-09-02T04:01:48.159Z,99363.81
2022-09-02T04:04:18.681Z,99383.88
2022-09-02T04:06:51.402Z,99374.47
2022-09-02T04:09:22.430Z,99377.19
2022-09-02T04:11:50.100Z,99385.06
2022-09-02T04:14:17.748Z,99394.81
2022-09-02T04:16:45.345Z,99392.38
2022-09-02T04:19:14.504Z,99401.06
2022-09-02T04:21:42.804Z,99401.81
2022-09-02T04:24:14.963Z,99387.63
2022-09-02T04:26:46.740Z,99403.28
2022-09-02T04:29:17.582Z,99401.50
2022-09-02T04:31:49.267Z,99402.56
2022-09-02T04:34:17.296Z,99399.78
2022-09-02T04:36:45.557Z,99405.13
2022-09-02T04:39:13.949Z,99399.88
2022-09-02T04:41:42.624Z,99397.25
2022-09-02T04:44:12.871Z,99391.38
2022-09-02T04:46:43.471Z,99408.16
2022-09-02T04:49:18.551Z,99417.22
2022-09-02T04:51:47.373Z,99414.84
2022-09-02T04:54:15.397Z,99410.19
2022-09-02T04:56:46.866Z,99416.22
2022-09-02T04:59:15.228Z,99410.81
2022-09-02T05:01:52.056Z,99422.94
2022-09-02T05:04:24.757Z,99416.78
2022-09-02T05:06:53.310Z,99423.84
2022-09-02T05:09:24.320Z,99410.94
2022-09-02T05:12:01.003Z,99418.88
2022-09-02T05:14:33.358Z,99421.59
2022-09-02T05:17:07.613Z,99434.69
2022-09-02T05:19:38.990Z,99434.69
2022-09-02T05:22:07.161Z,99430.38
2022-09-02T05:24:38.786Z,99437.16
2022-09-02T05:27:12.162Z,99440.53
2022-09-02T05:29:45.129Z,99448.31
2022-09-02T05:32:13.485Z,99451.56
2022-09-02T05:34:41.240Z,99453.25
2022-09-02T05:37:08.934Z,99439.28
2022-09-02T05:39:37.675Z,99443.66
2022-09-02T05:42:07.355Z,99450.84
2022-09-02T05:44:37.285Z,99460.78
2022-09-02T05:47:06.421Z,99459.44
2022-09-02T05:49:34.218Z,99467.25
2022-09-02T05:52:10.348Z,99465.91
2022-09-02T05:54:44.859Z,99460.75
2022-09-02T05:57:17.721Z,99465.91
2022-09-02T06:00:07.666Z,99448.41
2022-09-02T06:02:50.426Z,99467.66
2022-09-02T06:05:24.497Z,99468.06
2022-09-02T06:08:00.276Z,99471.72
2022-09-02T06:10:28.182Z,99471.81
2022-09-02T06:12:55.856Z,99463.25
2022-09-02T06:15:30.992Z,99479.03
2022-09-02T06:18:04.004Z,99472.06
2022-09-02T06:20:37.208Z,99478.09
2022-09-02T06:23:04.883Z,99470.53
2022-09-02T06:25:35.979Z,99467.75
2022-09-02T06:28:07.203Z,99485.63
2022-09-02T06:30:41.065Z,99486.25
2022-09-02T06:33:17.310Z,99513.13
2022-09-02T06:35:46.551Z,99495.66
2022-09-02T06:38:19.628Z,99497.81
2022-09-02T06:40:53.884Z,99501.88
2022-09-02T06:43:42.353Z,99523.63
2022-09-02T06:46:25.941Z,99526.25
2022-09-02T06:48:56.400Z,99529.84
2022-09-02T06:51:28.534Z,99507.09
2022-09-02T06:53:58.225Z,99504.06
2022-09-02T06:56:29.272Z,99512.88
2022-09-02T06:58:57.398Z,99529.00
2022-09-02T07:01:37.797Z,99523.34
2022-09-02T07:04:24.311Z,99537.19
2022-09-02T07:06:54.973Z,99529.59
2022-09-02T07:09:34.044Z,99529.44
2022-09-02T07:12:09.061Z,99532.28
2022-09-02T07:14:43.963Z,99521.84
2022-09-02T07:17:21.923Z,99526.78
2022-09-02T07:19:56.023Z,99527.19
2022-09-02T07:22:24.563Z,99525.09
2022-09-02T07:24:52.281Z,99523.31
2022-09-02T07:27:23.784Z,99535.25
2022-09-02T07:29:51.894Z,99528.44
2022-09-02T07:32:19.601Z,99514.53
2022-09-02T07:34:48.763Z,99526.03
2022-09-02T07:37:16.539Z,99525.16
2022-09-02T07:39:47.688Z,99535.47
2022-09-02T07:42:16.986Z,99530.13
2022-09-02T07:44:45.160Z,99522.88
2022-09-02T07:47:13.262Z,99533.88
2022-09-02T07:52:35.040Z,99542.84
2022-09-02T07:55:06.198Z,99550.13
2022-09-02T07:57:35.367Z,99550.25
2022-09-02T08:00:06.038Z,99570.94
2022-09-02T08:02:41.903Z,99576.88
2022-09-02T08:05:13.314Z,99581.56
2022-09-02T08:07:40.983Z,99570.84
2022-09-02T08:10:11.181Z,99556.53
2022-09-02T08:12:42.120Z,99553.72
2022-09-02T08:15:12.060Z,99553.72
2022-09-02T08:17:48.670Z,99551.09
2022-09-02T08:20:18.260Z,99537.06
2022-09-02T08:22:50.822Z,99558.66
2022-09-02T08:25:26.947Z,99571.88
2022-09-02T08:27:57.002Z,99558.31
2022-09-02T08:30:24.794Z,99571.75
2022-09-02T08:32:52.425Z,99568.38
2022-09-02T08:35:21.074Z,99573.19
2022-09-02T08:37:48.862Z,99581.75
2022-09-02T08:40:20.642Z,99587.75
2022-09-02T08:42:56.558Z,99582.13
2022-09-02T08:45:30.455Z,99574.94
2022-09-02T08:48:27.941Z,99583.91
2022-09-02T08:51:03.433Z,99582.50
2022-09-02T08:53:46.763Z,99586.69
2022-09-02T08:56:17.575Z,99588.38
2022-09-02T08:58:58.730Z,99586.69
2022-09-02T09:01:50.848Z,99590.19
2022-09-02T09:04:57.595Z,99578.78
2022-09-02T09:07:53.722Z,99599.47
2022-09-02T09:10:27.270Z,99586.53
2022-09-02T09:13:32.326Z,99577.59
2022-09-02T09:16:12.771Z,99587.94
2022-09-02T09:19:10.949Z,99603.00
2022-09-02T09:21:40.977Z,99599.97
2022-09-02T09:24:21.051Z,99615.81
2022-09-02T09:26:48.985Z,99602.50
2022-09-02T09:29:16.888Z,99615.16
2022-09-02T09:31:47.286Z,99612.84
2022-09-02T09:34:23.845Z,99635.41
2022-09-02T09:36:56.168Z,99640.44
2022-09-02T09:39:30.301Z,99640.97
2022-09-02T09:42:03.924Z,99649.25
2022-09-02T09:44:46.775Z,99671.22
2022-09-02T09:47:23.317Z,99664.88
2022-09-02T09:50:09.779Z,99652.38
2022-09-02T09:52:38.558Z,99646.41
2022-09-02T09:55:14.713Z,99656.00
2022-09-02T09:57:48.089Z,99659.47
2022-09-02T10:00:28.356Z,99641.19
2022-09-02T10:02:58.909Z,99638.88
2022-09-02T10:05:40.512Z,99639.81
2022-09-02T10:08:29.003Z,99645.78
2022-09-02T10:11:19.748Z,99658.47
2022-09-02T10:13:50.686Z,99663.66
2022-09-02T10:16:49.426Z,99672.28
2022-09-02T10:19:44.430Z,99692.66
2022-09-02T10:23:00.010Z,99683.09
2022-09-02T10:25:50.212Z,99687.59
2022-09-02T10:28:24.025Z,99684.31
2022-09-02T10:31:49.085Z,99676.16
2022-09-02T10:34:40.334Z,99674.91
2022-09-02T10:37:23.995Z,99683.69
2022-09-02T10:40:10.404Z,99691.16
2022-09-02T10:43:07.421Z,99697.38
2022-09-02T10:45:46.699Z,99688.78
2022-09-02T10:48:27.661Z,99682.28
2022-09-02T10:51:08.057Z,99694.47
2022-09-02T10:53:52.894Z,99713.78
2022-09-02T10:56:26.839Z,99712.41
2022-09-02T10:59:23.948Z,99706.09
2022-09-02T11:02:21.018Z,99714.81
2022-09-02T11:04:56.872Z,99697.44
2022-09-02T11:07:35.389Z,99689.38
2022-09-02T11:10:16.247Z,99709.53
2022-09-02T11:12:57.497Z,99706.16
2022-09-02T11:15:40.145Z,99719.44
2022-09-02T11:18:36.604Z,99732.09
2022-09-02T11:21:25.348Z,99724.72
2022-09-02T11:24:05.495Z,99725.53
2022-09-02T11:26:54.484Z,99727.81
2022-09-02T11:29:57.123Z,99728.41
2022-09-02T11:32:44.392Z,99730.94
2022-09-02T11:35:27.052Z,99731.44
2022-09-02T11:38:06.240Z,99736.63
2022-09-02T11:44:15.467Z,99738.31
2022-09-02T11:46:43.435Z,99733.44
2022-09-02T11:49:51.462Z,99744.75
2022-09-02T11:52:35.656Z,99737.00
2022-09-02T11:55:22.793Z,99736.50
2022-09-02T11:57:57.750Z,99750.63
2022-09-02T12:01:01.321Z,99748.41
2022-09-02T12:03:52.046Z,99744.50
2022-09-02T12:06:27.158Z,99762.78
2022-09-02T12:08:55.256Z,99754.06
2022-09-02T12:11:50.864Z,99750.88
2022-09-02T12:14:24.153Z,99751.91
2022-09-02T12:17:07.091Z,99738.88
2022-09-02T12:19:45.464Z,99753.50
2022-09-02T12:22:18.806Z,99753.13
2022-09-02T12:24:54.800Z,99749.19
2022-09-02T12:27:36.870Z,99766.31
2022-09-02T12:30:09.502Z,99771.75
2022-09-02T12:32:46.379Z,99770.53
2022-09-02T12:35:33.005Z,99785.63
2022-09-02T12:38:11.348Z,99775.75
2022-09-02T12:40:55.140Z,99771.59
2022-09-02T12:43:29.395Z,99780.47
2022-09-02T12:46:07.149Z,99781.31
2022-09-02T12:48:45.192Z,99776.88
2022-09-02T12:51:51.149Z,99794.28
2022-09-02T12:54:27.128Z,99786.34
2022-09-02T12:56:55.045Z,99774.50
2022-09-02T12:59:33.693Z,99769.13
2022-09-02T13:02:15.282Z,99769.63
2022-09-02T13:05:31.233Z,99780.28
2022-09-02T13:08:27.155Z,99784.66
2022-09-02T13:11:16.981Z,99797.81
2022-09-02T13:14:20.034Z,99821.22
2022-09-02T13:17:36.003Z,99844.63
2022-09-02T13:20:24.930Z,99858.69
2022-09-02T13:23:11.291Z,99861.56
2022-09-02T13:25:57.796Z,99860.16
2022-09-02T13:28:50.137Z,99860.56
2022-09-02T13:31:23.916Z,99861.13
2022-09-02T13:34:08.196Z,99854.97
2022-09-02T13:36:41.114Z,99874.38
2022-09-02T13:39:19.132Z,99863.72
2022-09-02T13:41:51.081Z,99873.44
2022-09-02T13:44:31.133Z,99867.06
2022-09-02T13:47:17.636Z,99859.88
2022-09-02T13:49:47.820Z,99864.75
2022-09-02T13:52:19.513Z,99876.00
2022-09-02T13:54:54.111Z,99868.22
2022-09-02T13:57:32.169Z,99869.94
2022-09-02T14:00:00.008Z,99868.00
2022-09-02T14:02:36.722Z,99868.78
2022-09-02T14:05:20.559Z,99872.19
2022-09-02T14:07:53.951Z,99876.47
2022-09-02T14:10:24.734Z,99884.44
2022-09-02T14:12:52.965Z,99885.44
2022-09-02T14:15:47.158Z,99888.22
2022-09-02T14:18:27.289Z,99885.44
2022-09-02T14:21:02.303Z,99891.19
2022-09-02T14:23:35.921Z,99897.03
2022-09-02T14:26:07.461Z,99904.56
2022-09-02T14:28:36.757Z,99904.22
2022-09-02T14:31:27.199Z,99913.41
2022-09-02T14:33:57.386Z,99921.06
2022-09-02T14:36:25.346Z,99903.56
2022-09-02T14:38:57.598Z,99913.84
2022-09-02T14:41:28.554Z,99924.03
2022-09-02T14:44:08.798Z,99912.63
2022-09-02T14:46:44.959Z,99920.25
2022-09-02T14:49:30.039Z,99925.38
2022-09-02T14:52:01.398Z,99926.84
2022-09-02T14:54:40.710Z,99916.50
2022-09-02T14:57:39.294Z,99928.75
2022-09-02T15:00:20.265Z,99921.63
2022-09-02T15:02:57.157Z,99917.41
2022-09-02T15:05:25.364Z,99916.38
2022-09-02T15:07:53.483Z,99918.22
2022-09-02T15:10:21.781Z,99916.38
2022-09-02T15:12:53.135Z,99925.00
2022-09-02T15:15:21.330Z,99929.09
2022-09-02T15:17:52.869Z,99931.41
2022-09-02T15:20:24.924Z,99938.00
2022-09-02T15:23:06.925Z,99935.28
2022-09-02T15:25:35.305Z,99937.75
2022-09-02T15:28:06.650Z,99935.84
2022-09-02T15:30:40.896Z,99941.00
2022-09-02T15:33:16.691Z,99945.22
